sensor_id;sensor_type;location;lat;lon;timestamp;P1;durP1;ratioP1;P2;durP2;ratioP2
67597;SDS011;62026;39.230;9.122;2023-05-10T00:01:47;5.47;;;2.17;;
67597;SDS011;62026;39.230;9.122;2023-05-10T00:04:13;4.63;;;1.80;;
67597;SDS011;62026;39.230;9.122;2023-05-10T00:06:39;2.97;;;1.67;;
67597;SDS011;62026;39.230;9.122;2023-05-10T00:09:05;5.47;;;1.90;;
67597;SDS011;62026;39.230;9.122;2023-05-10T00:11:31;2.65;;;1.70;;
67597;SDS011;62026;39.230;9.122;2023-05-10T00:13:57;3.70;;;1.90;;
67597;SDS011;62026;39.230;9.122;2023-05-10T00:16:23;3.42;;;1.80;;
67597;SDS011;62026;39.230;9.122;2023-05-10T00:18:49;3.92;;;1.80;;
67597;SDS011;62026;39.230;9.122;2023-05-10T00:21:15;5.13;;;1.95;;
67597;SDS011;62026;39.230;9.122;2023-05-10T00:23:41;3.58;;;1.70;;
67597;SDS011;62026;39.230;9.122;2023-05-10T00:26:07;5.00;;;1.95;;
67597;SDS011;62026;39.230;9.122;2023-05-10T00:28:33;3.30;;;1.65;;
67597;SDS011;62026;39.230;9.122;2023-05-10T00:30:59;5.57;;;1.67;;
67597;SDS011;62026;39.230;9.122;2023-05-10T00:33:25;3.67;;;1.70;;
67597;SDS011;62026;39.230;9.122;2023-05-10T00:35:51;4.63;;;1.70;;
67597;SDS011;62026;39.230;9.122;2023-05-10T00:38:17;6.07;;;1.52;;
67597;SDS011;62026;39.230;9.122;2023-05-10T00:40:43;2.90;;;1.60;;
67597;SDS011;62026;39.230;9.122;2023-05-10T00:43:17;6.93;;;1.77;;
67597;SDS011;62026;39.230;9.122;2023-05-10T00:45:43;5.68;;;1.80;;
67597;SDS011;62026;39.230;9.122;2023-05-10T00:48:10;4.88;;;1.58;;
67597;SDS011;62026;39.230;9.122;2023-05-10T00:50:37;6.03;;;1.75;;
67597;SDS011;62026;39.230;9.122;2023-05-10T00:53:05;6.05;;;1.85;;
67597;SDS011;62026;39.230;9.122;2023-05-10T00:55:31;9.63;;;2.00;;
67597;SDS011;62026;39.230;9.122;2023-05-10T00:57:57;6.90;;;2.22;;
67597;SDS011;62026;39.230;9.122;2023-05-10T01:00:24;2.90;;;1.52;;
67597;SDS011;62026;39.230;9.122;2023-05-10T01:02:50;5.43;;;1.70;;
67597;SDS011;62026;39.230;9.122;2023-05-10T01:05:19;3.38;;;1.63;;
67597;SDS011;62026;39.230;9.122;2023-05-10T01:07:45;6.97;;;1.98;;
67597;SDS011;62026;39.230;9.122;2023-05-10T01:10:11;5.07;;;1.42;;
67597;SDS011;62026;39.230;9.122;2023-05-10T01:12:38;5.40;;;1.50;;
67597;SDS011;62026;39.230;9.122;2023-05-10T01:15:07;5.30;;;1.70;;
67597;SDS011;62026;39.230;9.122;2023-05-10T01:17:37;4.63;;;1.67;;
67597;SDS011;62026;39.230;9.122;2023-05-10T01:20:06;5.53;;;1.90;;
67597;SDS011;62026;39.230;9.122;2023-05-10T01:39:33;4.30;;;1.67;;
67597;SDS011;62026;39.230;9.122;2023-05-10T01:42:25;8.77;;;1.83;;
67597;SDS011;62026;39.230;9.122;2023-05-10T01:45:11;5.10;;;1.58;;
67597;SDS011;62026;39.230;9.122;2023-05-10T01:48:06;7.28;;;1.75;;
67597;SDS011;62026;39.230;9.122;2023-05-10T01:50:36;8.43;;;2.00;;
67597;SDS011;62026;39.230;9.122;2023-05-10T01:53:08;5.78;;;1.60;;
67597;SDS011;62026;39.230;9.122;2023-05-10T01:55:47;7.28;;;1.73;;
67597;SDS011;62026;39.230;9.122;2023-05-10T01:58:27;7.68;;;1.63;;
67597;SDS011;62026;39.230;9.122;2023-05-10T02:00:57;6.55;;;1.58;;
67597;SDS011;62026;39.230;9.122;2023-05-10T02:03:28;6.43;;;2.00;;
67597;SDS011;62026;39.230;9.122;2023-05-10T02:05:59;5.40;;;1.60;;
67597;SDS011;62026;39.230;9.122;2023-05-10T02:08:26;4.57;;;1.70;;
67597;SDS011;62026;39.230;9.122;2023-05-10T02:10:54;6.15;;;1.98;;
67597;SDS011;62026;39.230;9.122;2023-05-10T02:13:23;4.85;;;1.70;;
67597;SDS011;62026;39.230;9.122;2023-05-10T02:15:52;5.10;;;1.75;;
67597;SDS011;62026;39.230;9.122;2023-05-10T02:18:20;5.47;;;1.77;;
67597;SDS011;62026;39.230;9.122;2023-05-10T02:20:50;4.32;;;1.65;;
67597;SDS011;62026;39.230;9.122;2023-05-10T02:23:20;5.85;;;1.85;;
67597;SDS011;62026;39.230;9.122;2023-05-10T02:25:48;6.05;;;1.80;;
67597;SDS011;62026;39.230;9.122;2023-05-10T02:28:19;6.57;;;2.15;;
67597;SDS011;62026;39.230;9.122;2023-05-10T02:30:48;4.35;;;1.60;;
67597;SDS011;62026;39.230;9.122;2023-05-10T02:33:16;5.28;;;1.73;;
67597;SDS011;62026;39.230;9.122;2023-05-10T02:35:44;3.53;;;1.52;;
67597;SDS011;62026;39.230;9.122;2023-05-10T02:38:12;6.45;;;1.83;;
67597;SDS011;62026;39.230;9.122;2023-05-10T02:40:40;7.03;;;1.80;;
67597;SDS011;62026;39.230;9.122;2023-05-10T02:43:09;9.63;;;1.70;;
67597;SDS011;62026;39.230;9.122;2023-05-10T02:45:41;10.55;;;2.00;;
67597;SDS011;62026;39.230;9.122;2023-05-10T02:48:12;6.13;;;1.75;;
67597;SDS011;62026;39.230;9.122;2023-05-10T02:50:38;3.70;;;1.60;;
67597;SDS011;62026;39.230;9.122;2023-05-10T02:53:10;5.43;;;1.77;;
67597;SDS011;62026;39.230;9.122;2023-05-10T02:55:44;5.47;;;1.60;;
67597;SDS011;62026;39.230;9.122;2023-05-10T02:58:17;8.20;;;1.92;;
67597;SDS011;62026;39.230;9.122;2023-05-10T03:00:46;5.70;;;1.50;;
67597;SDS011;62026;39.230;9.122;2023-05-10T03:03:12;8.23;;;1.65;;
67597;SDS011;62026;39.230;9.122;2023-05-10T03:05:38;3.42;;;1.50;;
67597;SDS011;62026;39.230;9.122;2023-05-10T03:08:04;8.13;;;1.60;;
67597;SDS011;62026;39.230;9.122;2023-05-10T03:10:31;4.25;;;1.60;;
67597;SDS011;62026;39.230;9.122;2023-05-10T03:13:16;9.88;;;2.08;;
67597;SDS011;62026;39.230;9.122;2023-05-10T03:16:15;4.10;;;1.58;;
67597;SDS011;62026;39.230;9.122;2023-05-10T03:19:01;4.43;;;1.60;;
67597;SDS011;62026;39.230;9.122;2023-05-10T03:21:44;6.05;;;1.60;;
67597;SDS011;62026;39.230;9.122;2023-05-10T03:24:18;3.70;;;1.60;;
67597;SDS011;62026;39.230;9.122;2023-05-10T03:26:48;5.20;;;1.77;;
67597;SDS011;62026;39.230;9.122;2023-05-10T03:29:19;3.80;;;1.60;;
67597;SDS011;62026;39.230;9.122;2023-05-10T03:31:47;5.30;;;1.50;;
67597;SDS011;62026;39.230;9.122;2023-05-10T03:34:14;4.60;;;1.50;;
67597;SDS011;62026;39.230;9.122;2023-05-10T03:36:40;4.60;;;1.52;;
67597;SDS011;62026;39.230;9.122;2023-05-10T03:39:06;2.85;;;1.40;;
67597;SDS011;62026;39.230;9.122;2023-05-10T03:41:32;7.30;;;1.55;;
67597;SDS011;62026;39.230;9.122;2023-05-10T03:43:59;7.90;;;2.38;;
67597;SDS011;62026;39.230;9.122;2023-05-10T03:46:25;5.35;;;1.70;;
67597;SDS011;62026;39.230;9.122;2023-05-10T03:48:51;8.93;;;1.80;;
67597;SDS011;62026;39.230;9.122;2023-05-10T03:51:17;7.20;;;1.50;;
67597;SDS011;62026;39.230;9.122;2023-05-10T03:53:43;4.40;;;1.40;;
67597;SDS011;62026;39.230;9.122;2023-05-10T03:56:10;9.30;;;1.92;;
67597;SDS011;62026;39.230;9.122;2023-05-10T03:58:36;4.63;;;1.45;;
67597;SDS011;62026;39.230;9.122;2023-05-10T04:01:02;3.22;;;1.38;;
67597;SDS011;62026;39.230;9.122;2023-05-10T04:03:29;3.83;;;1.50;;
67597;SDS011;62026;39.230;9.122;2023-05-10T04:05:58;5.32;;;1.70;;
67597;SDS011;62026;39.230;9.122;2023-05-10T04:08:26;4.88;;;1.70;;
67597;SDS011;62026;39.230;9.122;2023-05-10T04:10:52;3.35;;;1.63;;
67597;SDS011;62026;39.230;9.122;2023-05-10T04:13:18;4.45;;;1.60;;
67597;SDS011;62026;39.230;9.122;2023-05-10T04:15:44;7.60;;;1.50;;
67597;SDS011;62026;39.230;9.122;2023-05-10T04:18:10;5.35;;;1.40;;
67597;SDS011;62026;39.230;9.122;2023-05-10T04:20:36;5.47;;;1.30;;
67597;SDS011;62026;39.230;9.122;2023-05-10T04:23:02;5.93;;;1.40;;
67597;SDS011;62026;39.230;9.122;2023-05-10T04:25:28;2.30;;;1.20;;
67597;SDS011;62026;39.230;9.122;2023-05-10T04:27:54;2.92;;;1.17;;
67597;SDS011;62026;39.230;9.122;2023-05-10T04:30:20;6.53;;;1.50;;
67597;SDS011;62026;39.230;9.122;2023-05-10T04:32:46;6.38;;;1.40;;
67597;SDS011;62026;39.230;9.122;2023-05-10T04:35:13;5.22;;;2.08;;
67597;SDS011;62026;39.230;9.122;2023-05-10T04:37:39;4.63;;;2.00;;
67597;SDS011;62026;39.230;9.122;2023-05-10T04:40:06;6.03;;;2.40;;
67597;SDS011;62026;39.230;9.122;2023-05-10T04:42:32;5.97;;;1.80;;
67597;SDS011;62026;39.230;9.122;2023-05-10T04:44:58;4.13;;;1.63;;
67597;SDS011;62026;39.230;9.122;2023-05-10T04:47:24;4.00;;;1.58;;
67597;SDS011;62026;39.230;9.122;2023-05-10T04:49:50;5.53;;;1.95;;
67597;SDS011;62026;39.230;9.122;2023-05-10T04:52:16;3.47;;;1.27;;
67597;SDS011;62026;39.230;9.122;2023-05-10T04:54:43;5.28;;;1.40;;
67597;SDS011;62026;39.230;9.122;2023-05-10T04:57:09;6.50;;;1.52;;
67597;SDS011;62026;39.230;9.122;2023-05-10T04:59:35;6.28;;;2.08;;
67597;SDS011;62026;39.230;9.122;2023-05-10T05:02:02;4.65;;;1.25;;
67597;SDS011;62026;39.230;9.122;2023-05-10T05:04:29;2.88;;;1.60;;
67597;SDS011;62026;39.230;9.122;2023-05-10T05:06:56;3.63;;;1.30;;
67597;SDS011;62026;39.230;9.122;2023-05-10T05:09:22;3.47;;;1.23;;
67597;SDS011;62026;39.230;9.122;2023-05-10T05:11:48;5.57;;;1.23;;
67597;SDS011;62026;39.230;9.122;2023-05-10T05:14:14;4.13;;;1.35;;
67597;SDS011;62026;39.230;9.122;2023-05-10T05:16:40;4.40;;;1.73;;
67597;SDS011;62026;39.230;9.122;2023-05-10T05:19:06;4.25;;;1.65;;
67597;SDS011;62026;39.230;9.122;2023-05-10T05:21:32;5.15;;;1.42;;
67597;SDS011;62026;39.230;9.122;2023-05-10T05:23:58;5.70;;;1.35;;
67597;SDS011;62026;39.230;9.122;2023-05-10T05:26:24;3.28;;;1.50;;
67597;SDS011;62026;39.230;9.122;2023-05-10T05:28:51;5.13;;;1.50;;
67597;SDS011;62026;39.230;9.122;2023-05-10T05:31:19;5.13;;;1.55;;
67597;SDS011;62026;39.230;9.122;2023-05-10T05:33:46;8.10;;;1.95;;
67597;SDS011;62026;39.230;9.122;2023-05-10T05:36:12;6.25;;;1.45;;
67597;SDS011;62026;39.230;9.122;2023-05-10T05:38:37;3.03;;;1.50;;
67597;SDS011;62026;39.230;9.122;2023-05-10T05:41:03;6.35;;;1.55;;
67597;SDS011;62026;39.230;9.122;2023-05-10T05:43:29;6.00;;;1.65;;
67597;SDS011;62026;39.230;9.122;2023-05-10T05:45:55;4.70;;;1.30;;
67597;SDS011;62026;39.230;9.122;2023-05-10T05:48:23;6.32;;;2.00;;
67597;SDS011;62026;39.230;9.122;2023-05-10T05:50:49;5.53;;;1.70;;
67597;SDS011;62026;39.230;9.122;2023-05-10T05:53:15;6.95;;;1.40;;
67597;SDS011;62026;39.230;9.122;2023-05-10T05:55:50;7.93;;;1.33;;
67597;SDS011;62026;39.230;9.122;2023-05-10T05:58:24;7.22;;;1.50;;
67597;SDS011;62026;39.230;9.122;2023-05-10T06:00:51;7.20;;;1.55;;
67597;SDS011;62026;39.230;9.122;2023-05-10T06:03:18;6.47;;;1.60;;
67597;SDS011;62026;39.230;9.122;2023-05-10T06:05:46;7.53;;;1.60;;
67597;SDS011;62026;39.230;9.122;2023-05-10T06:08:13;3.70;;;1.30;;
67597;SDS011;62026;39.230;9.122;2023-05-10T06:10:39;7.45;;;1.52;;
67597;SDS011;62026;39.230;9.122;2023-05-10T06:13:05;8.52;;;1.52;;
67597;SDS011;62026;39.230;9.122;2023-05-10T06:15:31;4.32;;;1.38;;
67597;SDS011;62026;39.230;9.122;2023-05-10T06:17:57;6.30;;;1.40;;
67597;SDS011;62026;39.230;9.122;2023-05-10T06:20:23;3.40;;;1.40;;
67597;SDS011;62026;39.230;9.122;2023-05-10T06:22:50;7.22;;;1.73;;
67597;SDS011;62026;39.230;9.122;2023-05-10T06:25:16;12.55;;;1.55;;
67597;SDS011;62026;39.230;9.122;2023-05-10T06:27:43;4.32;;;1.48;;
67597;SDS011;62026;39.230;9.122;2023-05-10T06:30:09;8.80;;;1.40;;
67597;SDS011;62026;39.230;9.122;2023-05-10T06:32:38;4.93;;;1.38;;
67597;SDS011;62026;39.230;9.122;2023-05-10T06:35:04;6.88;;;1.40;;
67597;SDS011;62026;39.230;9.122;2023-05-10T06:37:31;6.72;;;1.33;;
67597;SDS011;62026;39.230;9.122;2023-05-10T06:39:57;4.00;;;1.20;;
67597;SDS011;62026;39.230;9.122;2023-05-10T06:42:23;5.53;;;1.05;;
67597;SDS011;62026;39.230;9.122;2023-05-10T06:44:51;6.22;;;1.20;;
67597;SDS011;62026;39.230;9.122;2023-05-10T06:47:17;5.05;;;1.50;;
67597;SDS011;62026;39.230;9.122;2023-05-10T06:49:43;5.18;;;0.98;;
67597;SDS011;62026;39.230;9.122;2023-05-10T06:52:09;2.58;;;0.82;;
67597;SDS011;62026;39.230;9.122;2023-05-10T06:54:35;5.07;;;1.13;;
67597;SDS011;62026;39.230;9.122;2023-05-10T06:57:01;10.43;;;1.25;;
67597;SDS011;62026;39.230;9.122;2023-05-10T07:12:30;4.47;;;1.00;;
67597;SDS011;62026;39.230;9.122;2023-05-10T07:14:56;5.85;;;1.10;;
67597;SDS011;62026;39.230;9.122;2023-05-10T07:17:22;3.22;;;0.85;;
67597;SDS011;62026;39.230;9.122;2023-05-10T07:19:48;8.35;;;0.90;;
67597;SDS011;62026;39.230;9.122;2023-05-10T07:22:15;5.28;;;1.00;;
67597;SDS011;62026;39.230;9.122;2023-05-10T07:24:41;5.07;;;1.00;;
67597;SDS011;62026;39.230;9.122;2023-05-10T07:27:07;4.55;;;1.10;;
67597;SDS011;62026;39.230;9.122;2023-05-10T07:29:34;3.70;;;0.98;;
67597;SDS011;62026;39.230;9.122;2023-05-10T07:32:02;6.70;;;1.05;;
67597;SDS011;62026;39.230;9.122;2023-05-10T07:34:28;3.72;;;0.90;;
67597;SDS011;62026;39.230;9.122;2023-05-10T07:36:57;4.13;;;1.00;;
67597;SDS011;62026;39.230;9.122;2023-05-10T07:39:24;5.95;;;1.05;;
67597;SDS011;62026;39.230;9.122;2023-05-10T07:41:51;2.50;;;0.70;;
67597;SDS011;62026;39.230;9.122;2023-05-10T07:44:17;7.05;;;0.95;;
67597;SDS011;62026;39.230;9.122;2023-05-10T07:46:45;3.72;;;0.85;;
67597;SDS011;62026;39.230;9.122;2023-05-10T07:49:12;6.50;;;0.90;;
67597;SDS011;62026;39.230;9.122;2023-05-10T07:51:38;2.95;;;0.80;;
67597;SDS011;62026;39.230;9.122;2023-05-10T07:54:05;3.25;;;0.70;;
67597;SDS011;62026;39.230;9.122;2023-05-10T07:56:31;2.45;;;0.70;;
67597;SDS011;62026;39.230;9.122;2023-05-10T07:59:02;2.55;;;0.70;;
67597;SDS011;62026;39.230;9.122;2023-05-10T08:04:00;2.47;;;0.70;;
67597;SDS011;62026;39.230;9.122;2023-05-10T08:06:26;8.05;;;0.70;;
67597;SDS011;62026;39.230;9.122;2023-05-10T08:08:55;4.78;;;0.70;;
67597;SDS011;62026;39.230;9.122;2023-05-10T08:11:21;4.07;;;0.80;;
67597;SDS011;62026;39.230;9.122;2023-05-10T08:13:48;3.67;;;0.77;;
67597;SDS011;62026;39.230;9.122;2023-05-10T08:16:16;5.22;;;0.73;;
67597;SDS011;62026;39.230;9.122;2023-05-10T08:18:43;5.82;;;0.90;;
67597;SDS011;62026;39.230;9.122;2023-05-10T08:21:12;4.82;;;0.70;;
67597;SDS011;62026;39.230;9.122;2023-05-10T08:23:39;3.33;;;0.73;;
67597;SDS011;62026;39.230;9.122;2023-05-10T08:26:05;3.47;;;0.95;;
67597;SDS011;62026;39.230;9.122;2023-05-10T08:28:32;5.10;;;0.80;;
67597;SDS011;62026;39.230;9.122;2023-05-10T08:30:57;4.28;;;0.70;;
67597;SDS011;62026;39.230;9.122;2023-05-10T08:33:23;2.75;;;0.68;;
67597;SDS011;62026;39.230;9.122;2023-05-10T08:35:50;2.92;;;0.75;;
67597;SDS011;62026;39.230;9.122;2023-05-10T08:38:16;5.00;;;0.90;;
67597;SDS011;62026;39.230;9.122;2023-05-10T08:40:43;4.38;;;0.80;;
67597;SDS011;62026;39.230;9.122;2023-05-10T08:43:11;3.20;;;0.88;;
67597;SDS011;62026;39.230;9.122;2023-05-10T08:45:43;5.47;;;0.77;;
67597;SDS011;62026;39.230;9.122;2023-05-10T08:48:13;5.97;;;1.05;;
67597;SDS011;62026;39.230;9.122;2023-05-10T08:50:41;2.95;;;0.80;;
67597;SDS011;62026;39.230;9.122;2023-05-10T08:53:12;6.10;;;0.90;;
67597;SDS011;62026;39.230;9.122;2023-05-10T08:55:40;5.78;;;0.82;;
67597;SDS011;62026;39.230;9.122;2023-05-10T08:58:08;7.22;;;1.10;;
67597;SDS011;62026;39.230;9.122;2023-05-10T09:00:34;5.80;;;1.10;;
67597;SDS011;62026;39.230;9.122;2023-05-10T09:03:02;4.38;;;0.90;;
67597;SDS011;62026;39.230;9.122;2023-05-10T09:05:31;4.93;;;1.20;;
67597;SDS011;62026;39.230;9.122;2023-05-10T09:07:57;7.40;;;1.00;;
67597;SDS011;62026;39.230;9.122;2023-05-10T09:10:25;6.72;;;1.00;;
67597;SDS011;62026;39.230;9.122;2023-05-10T09:12:55;3.53;;;0.98;;
67597;SDS011;62026;39.230;9.122;2023-05-10T09:15:23;3.88;;;0.77;;
67597;SDS011;62026;39.230;9.122;2023-05-10T09:17:49;7.75;;;1.10;;
67597;SDS011;62026;39.230;9.122;2023-05-10T09:20:16;7.25;;;1.75;;
67597;SDS011;62026;39.230;9.122;2023-05-10T09:22:45;6.53;;;1.50;;
67597;SDS011;62026;39.230;9.122;2023-05-10T09:25:15;6.03;;;1.10;;
67597;SDS011;62026;39.230;9.122;2023-05-10T09:27:45;7.38;;;1.42;;
67597;SDS011;62026;39.230;9.122;2023-05-10T09:30:16;3.55;;;0.80;;
67597;SDS011;62026;39.230;9.122;2023-05-10T09:32:50;3.78;;;1.00;;
67597;SDS011;62026;39.230;9.122;2023-05-10T09:35:18;6.05;;;1.27;;
67597;SDS011;62026;39.230;9.122;2023-05-10T09:37:48;6.63;;;1.10;;
67597;SDS011;62026;39.230;9.122;2023-05-10T09:40:17;6.82;;;1.10;;
67597;SDS011;62026;39.230;9.122;2023-05-10T09:43:06;4.28;;;0.85;;
67597;SDS011;62026;39.230;9.122;2023-05-10T09:45:33;5.90;;;1.10;;
67597;SDS011;62026;39.230;9.122;2023-05-10T09:48:01;7.72;;;0.93;;
67597;SDS011;62026;39.230;9.122;2023-05-10T09:50:29;4.95;;;1.10;;
67597;SDS011;62026;39.230;9.122;2023-05-10T09:52:56;2.78;;;0.80;;
67597;SDS011;62026;39.230;9.122;2023-05-10T09:58:05;4.47;;;1.02;;
67597;SDS011;62026;39.230;9.122;2023-05-10T10:00:42;3.20;;;1.05;;
67597;SDS011;62026;39.230;9.122;2023-05-10T10:03:13;5.05;;;1.20;;
67597;SDS011;62026;39.230;9.122;2023-05-10T10:05:44;5.47;;;1.10;;
67597;SDS011;62026;39.230;9.122;2023-05-10T10:08:13;7.97;;;1.40;;
67597;SDS011;62026;39.230;9.122;2023-05-10T10:10:41;11.93;;;2.28;;
67597;SDS011;62026;39.230;9.122;2023-05-10T10:13:09;8.10;;;1.63;;
67597;SDS011;62026;39.230;9.122;2023-05-10T10:15:35;6.38;;;1.73;;
67597;SDS011;62026;39.230;9.122;2023-05-10T10:18:02;8.43;;;1.77;;
67597;SDS011;62026;39.230;9.122;2023-05-10T10:20:29;10.00;;;1.50;;
67597;SDS011;62026;39.230;9.122;2023-05-10T10:22:56;12.13;;;1.70;;
67597;SDS011;62026;39.230;9.122;2023-05-10T10:25:22;8.95;;;1.52;;
67597;SDS011;62026;39.230;9.122;2023-05-10T10:32:59;9.88;;;2.08;;
67597;SDS011;62026;39.230;9.122;2023-05-10T10:35:45;6.20;;;1.50;;
67597;SDS011;62026;39.230;9.122;2023-05-10T10:38:12;7.15;;;2.13;;
67597;SDS011;62026;39.230;9.122;2023-05-10T10:40:39;9.00;;;1.90;;
67597;SDS011;62026;39.230;9.122;2023-05-10T10:48:50;9.40;;;1.60;;
67597;SDS011;62026;39.230;9.122;2023-05-10T10:51:37;10.50;;;2.33;;
67597;SDS011;62026;39.230;9.122;2023-05-10T10:54:10;10.18;;;1.42;;
67597;SDS011;62026;39.230;9.122;2023-05-10T10:56:36;12.30;;;1.65;;
67597;SDS011;62026;39.230;9.122;2023-05-10T10:59:03;6.38;;;1.25;;
67597;SDS011;62026;39.230;9.122;2023-05-10T11:01:32;6.25;;;1.50;;
67597;SDS011;62026;39.230;9.122;2023-05-10T11:06:29;6.50;;;1.48;;
67597;SDS011;62026;39.230;9.122;2023-05-10T11:08:57;6.72;;;1.60;;
67597;SDS011;62026;39.230;9.122;2023-05-10T11:11:24;9.35;;;2.08;;
67597;SDS011;62026;39.230;9.122;2023-05-10T11:13:50;6.90;;;1.20;;
67597;SDS011;62026;39.230;9.122;2023-05-10T11:18:54;8.85;;;1.95;;
67597;SDS011;62026;39.230;9.122;2023-05-10T11:21:22;4.40;;;1.20;;
67597;SDS011;62026;39.230;9.122;2023-05-10T11:23:49;6.50;;;1.27;;
67597;SDS011;62026;39.230;9.122;2023-05-10T11:26:21;7.05;;;1.20;;
67597;SDS011;62026;39.230;9.122;2023-05-10T11:28:50;8.95;;;1.65;;
67597;SDS011;62026;39.230;9.122;2023-05-10T11:31:22;11.80;;;1.67;;
67597;SDS011;62026;39.230;9.122;2023-05-10T11:33:50;5.95;;;1.58;;
67597;SDS011;62026;39.230;9.122;2023-05-10T11:36:22;13.23;;;1.55;;
67597;SDS011;62026;39.230;9.122;2023-05-10T11:38:54;10.93;;;1.25;;
67597;SDS011;62026;39.230;9.122;2023-05-10T11:41:21;7.65;;;1.67;;
67597;SDS011;62026;39.230;9.122;2023-05-10T11:43:50;7.63;;;1.55;;
67597;SDS011;62026;39.230;9.122;2023-05-10T11:46:18;8.52;;;1.70;;
67597;SDS011;62026;39.230;9.122;2023-05-10T11:48:52;6.25;;;1.35;;
67597;SDS011;62026;39.230;9.122;2023-05-10T11:51:23;7.28;;;1.40;;
67597;SDS011;62026;39.230;9.122;2023-05-10T11:53:52;10.38;;;1.83;;
67597;SDS011;62026;39.230;9.122;2023-05-10T11:56:20;7.28;;;1.42;;
67597;SDS011;62026;39.230;9.122;2023-05-10T11:58:52;7.72;;;1.40;;
67597;SDS011;62026;39.230;9.122;2023-05-10T12:01:20;9.55;;;1.70;;
67597;SDS011;62026;39.230;9.122;2023-05-10T12:03:48;6.03;;;1.60;;
67597;SDS011;62026;39.230;9.122;2023-05-10T12:06:17;7.18;;;1.42;;
67597;SDS011;62026;39.230;9.122;2023-05-10T12:08:47;7.82;;;1.52;;
67597;SDS011;62026;39.230;9.122;2023-05-10T12:11:18;9.43;;;1.60;;
67597;SDS011;62026;39.230;9.122;2023-05-10T12:13:47;8.18;;;1.40;;
67597;SDS011;62026;39.230;9.122;2023-05-10T12:16:13;10.45;;;1.38;;
67597;SDS011;62026;39.230;9.122;2023-05-10T12:18:44;8.33;;;1.40;;
67597;SDS011;62026;39.230;9.122;2023-05-10T12:21:13;13.07;;;1.77;;
67597;SDS011;62026;39.230;9.122;2023-05-10T12:23:40;7.90;;;1.85;;
67597;SDS011;62026;39.230;9.122;2023-05-10T12:26:10;8.55;;;1.60;;
67597;SDS011;62026;39.230;9.122;2023-05-10T12:28:37;6.97;;;1.75;;
67597;SDS011;62026;39.230;9.122;2023-05-10T12:31:05;9.68;;;1.85;;
67597;SDS011;62026;39.230;9.122;2023-05-10T12:33:38;10.88;;;2.08;;
67597;SDS011;62026;39.230;9.122;2023-05-10T12:36:11;18.67;;;2.63;;
67597;SDS011;62026;39.230;9.122;2023-05-10T12:38:40;10.35;;;2.03;;
67597;SDS011;62026;39.230;9.122;2023-05-10T12:41:10;12.77;;;2.28;;
67597;SDS011;62026;39.230;9.122;2023-05-10T12:43:38;12.63;;;1.73;;
67597;SDS011;62026;39.230;9.122;2023-05-10T12:46:06;11.75;;;2.08;;
67597;SDS011;62026;39.230;9.122;2023-05-10T12:48:38;16.00;;;2.70;;
67597;SDS011;62026;39.230;9.122;2023-05-10T12:51:05;9.90;;;2.03;;
67597;SDS011;62026;39.230;9.122;2023-05-10T12:53:37;14.77;;;1.65;;
67597;SDS011;62026;39.230;9.122;2023-05-10T12:56:04;12.52;;;2.05;;
67597;SDS011;62026;39.230;9.122;2023-05-10T12:58:31;14.45;;;2.30;;
67597;SDS011;62026;39.230;9.122;2023-05-10T13:00:57;16.40;;;2.50;;
67597;SDS011;62026;39.230;9.122;2023-05-10T13:03:25;12.88;;;1.98;;
67597;SDS011;62026;39.230;9.122;2023-05-10T13:05:51;11.25;;;2.17;;
67597;SDS011;62026;39.230;9.122;2023-05-10T13:08:17;15.73;;;1.83;;
67597;SDS011;62026;39.230;9.122;2023-05-10T13:10:43;15.07;;;2.45;;
67597;SDS011;62026;39.230;9.122;2023-05-10T13:13:10;7.68;;;1.60;;
67597;SDS011;62026;39.230;9.122;2023-05-10T13:15:36;9.80;;;2.20;;
67597;SDS011;62026;39.230;9.122;2023-05-10T13:18:02;8.75;;;1.83;;
67597;SDS011;62026;39.230;9.122;2023-05-10T13:20:28;11.60;;;2.05;;
67597;SDS011;62026;39.230;9.122;2023-05-10T13:22:54;12.15;;;1.88;;
67597;SDS011;62026;39.230;9.122;2023-05-10T13:25:20;11.13;;;1.95;;
67597;SDS011;62026;39.230;9.122;2023-05-10T13:27:46;9.18;;;1.90;;
67597;SDS011;62026;39.230;9.122;2023-05-10T13:30:12;12.88;;;2.10;;
67597;SDS011;62026;39.230;9.122;2023-05-10T13:32:38;12.40;;;2.22;;
67597;SDS011;62026;39.230;9.122;2023-05-10T13:35:04;11.20;;;2.17;;
67597;SDS011;62026;39.230;9.122;2023-05-10T13:37:31;9.80;;;1.60;;
67597;SDS011;62026;39.230;9.122;2023-05-10T13:40:00;11.77;;;2.20;;
67597;SDS011;62026;39.230;9.122;2023-05-10T13:42:27;12.30;;;2.15;;
67597;SDS011;62026;39.230;9.122;2023-05-10T13:44:53;13.80;;;2.20;;
67597;SDS011;62026;39.230;9.122;2023-05-10T13:47:19;14.38;;;2.63;;
67597;SDS011;62026;39.230;9.122;2023-05-10T13:49:46;12.10;;;1.88;;
67597;SDS011;62026;39.230;9.122;2023-05-10T13:52:12;12.10;;;2.13;;
67597;SDS011;62026;39.230;9.122;2023-05-10T13:54:38;12.60;;;2.17;;
67597;SDS011;62026;39.230;9.122;2023-05-10T13:57:05;10.38;;;1.77;;
67597;SDS011;62026;39.230;9.122;2023-05-10T13:59:31;12.82;;;2.53;;
67597;SDS011;62026;39.230;9.122;2023-05-10T14:01:58;13.05;;;2.22;;
67597;SDS011;62026;39.230;9.122;2023-05-10T14:04:25;12.90;;;2.30;;
67597;SDS011;62026;39.230;9.122;2023-05-10T14:06:51;16.73;;;2.30;;
67597;SDS011;62026;39.230;9.122;2023-05-10T14:09:18;8.18;;;2.03;;
67597;SDS011;62026;39.230;9.122;2023-05-10T14:11:44;14.23;;;2.03;;
67597;SDS011;62026;39.230;9.122;2023-05-10T14:14:11;9.18;;;2.15;;
67597;SDS011;62026;39.230;9.122;2023-05-10T14:16:41;9.65;;;2.00;;
67597;SDS011;62026;39.230;9.122;2023-05-10T14:19:09;14.88;;;2.42;;
67597;SDS011;62026;39.230;9.122;2023-05-10T14:21:36;11.55;;;2.47;;
67597;SDS011;62026;39.230;9.122;2023-05-10T14:24:03;8.48;;;1.63;;
67597;SDS011;62026;39.230;9.122;2023-05-10T14:26:30;14.27;;;2.65;;
67597;SDS011;62026;39.230;9.122;2023-05-10T14:28:56;10.75;;;1.80;;
67597;SDS011;62026;39.230;9.122;2023-05-10T14:31:22;11.40;;;1.83;;
67597;SDS011;62026;39.230;9.122;2023-05-10T14:33:49;8.30;;;1.77;;
67597;SDS011;62026;39.230;9.122;2023-05-10T14:36:15;13.27;;;1.92;;
67597;SDS011;62026;39.230;9.122;2023-05-10T14:38:42;7.50;;;1.48;;
67597;SDS011;62026;39.230;9.122;2023-05-10T14:41:09;8.82;;;1.73;;
67597;SDS011;62026;39.230;9.122;2023-05-10T14:43:39;11.48;;;1.83;;
67597;SDS011;62026;39.230;9.122;2023-05-10T14:46:06;10.25;;;1.75;;
67597;SDS011;62026;39.230;9.122;2023-05-10T14:48:32;11.60;;;1.80;;
67597;SDS011;62026;39.230;9.122;2023-05-10T14:50:58;6.47;;;1.50;;
67597;SDS011;62026;39.230;9.122;2023-05-10T14:53:24;11.82;;;2.00;;
67597;SDS011;62026;39.230;9.122;2023-05-10T14:55:50;12.82;;;1.90;;
67597;SDS011;62026;39.230;9.122;2023-05-10T14:58:16;9.77;;;1.90;;
67597;SDS011;62026;39.230;9.122;2023-05-10T15:00:42;12.07;;;2.00;;
67597;SDS011;62026;39.230;9.122;2023-05-10T15:03:08;9.32;;;1.75;;
67597;SDS011;62026;39.230;9.122;2023-05-10T15:05:34;12.75;;;1.92;;
67597;SDS011;62026;39.230;9.122;2023-05-10T15:08:02;8.15;;;1.88;;
67597;SDS011;62026;39.230;9.122;2023-05-10T15:10:30;10.75;;;1.60;;
67597;SDS011;62026;39.230;9.122;2023-05-10T15:12:57;9.15;;;1.73;;
67597;SDS011;62026;39.230;9.122;2023-05-10T15:15:24;6.25;;;1.65;;
67597;SDS011;62026;39.230;9.122;2023-05-10T15:17:50;9.13;;;1.58;;
67597;SDS011;62026;39.230;9.122;2023-05-10T15:20:16;8.50;;;1.60;;
67597;SDS011;62026;39.230;9.122;2023-05-10T15:22:42;9.88;;;1.60;;
67597;SDS011;62026;39.230;9.122;2023-05-10T15:25:08;12.07;;;1.70;;
67597;SDS011;62026;39.230;9.122;2023-05-10T15:27:35;12.90;;;1.90;;
67597;SDS011;62026;39.230;9.122;2023-05-10T15:30:01;9.15;;;1.80;;
67597;SDS011;62026;39.230;9.122;2023-05-10T15:32:27;11.85;;;1.90;;
67597;SDS011;62026;39.230;9.122;2023-05-10T15:34:54;9.43;;;2.08;;
67597;SDS011;62026;39.230;9.122;2023-05-10T15:37:20;8.55;;;1.73;;
67597;SDS011;62026;39.230;9.122;2023-05-10T15:39:48;16.77;;;2.08;;
67597;SDS011;62026;39.230;9.122;2023-05-10T15:42:14;8.75;;;1.80;;